Time;durP1;ratioP1;P1;durP2;ratioP2;P2;SDS_P1;SDS_P2;PMS_P1;PMS_P2;Temp;Humidity;BMP_temperature;BMP_pressure;BME280_temperature;BME280_humidity;BME280_pressure;Samples;Min_cycle;Max_cycle;Signal;HPM_P1;HPM_P2
2022/12/17 13:07:26;;;;;;;2.97;2.65;;;;;;;;;;4578029;27;20063;-63
2022/12/17 13:09:45;;;;;;;2.45;2.25;;;;;;;;;;4575213;27;20581;-63
2022/12/17 13:12:08;;;;;;;2.50;2.30;;;;;;;;;;4576579;27;20841;-63
2022/12/17 13:14:22;;;;;;;2.40;2.20;;;;;;;;;;4574731;27;20028;-63
2022/12/17 13:16:45;;;;;;;2.83;2.53;;;;;;;;;;4574710;27;20524;-63
2022/12/17 13:19:02;;;;;;;2.50;2.30;;;;;;;;;;4577356;27;20027;-63
2022/12/17 13:21:16;;;;;;;2.58;2.33;;;;;;;;;;4559049;27;20195;-63
2022/12/17 13:23:28;;;;;;;2.53;2.33;;;;;;;;;;4575665;27;20051;-63
2022/12/17 13:25:38;;;;;;;2.53;2.33;;;;;;;;;;4576669;27;20031;-63
2022/12/17 13:27:49;;;;;;;2.60;2.30;;;;;;;;;;4575319;27;20427;-62
2022/12/17 13:30:19;;;;;;;2.22;2.03;;;;;;;;;;4573650;27;20152;-63
2022/12/17 13:32:32;;;;;;;2.40;2.20;;;;;;;;;;4575261;27;20036;-63
2022/12/17 13:34:58;;;;;;;2.60;2.40;;;;;;;;;;4575167;27;20255;-63
2022/12/17 13:37:23;;;;;;;2.38;2.17;;;;;;;;;;4576963;27;20670;-63
2022/12/17 13:39:47;;;;;;;2.50;2.30;;;;;;;;;;4575668;27;20134;-63
2022/12/17 13:41:58;;;;;;;2.47;2.28;;;;;;;;;;4577151;27;20040;-63
2022/12/17 13:44:14;;;;;;;2.75;2.28;;;;;;;;;;4575429;27;20028;-63
2022/12/17 13:46:26;;;;;;;2.60;2.40;;;;;;;;;;4558339;27;20150;-63
2022/12/17 13:48:36;;;;;;;2.28;2.08;;;;;;;;;;4576004;27;20044;-63
2022/12/17 13:50:58;;;;;;;2.50;2.30;;;;;;;;;;4577248;27;20043;-63
2022/12/17 13:53:10;;;;;;;2.33;2.13;;;;;;;;;;4578453;27;20134;-63
2022/12/17 13:55:22;;;;;;;2.60;2.40;;;;;;;;;;4580645;27;20035;-63
2022/12/17 13:57:35;;;;;;;2.40;2.20;;;;;;;;;;4576117;27;20028;-63
2022/12/17 13:59:55;;;;;;;2.30;2.10;;;;;;;;;;4578331;27;20037;-63
2022/12/17 14:02:05;;;;;;;2.30;2.10;;;;;;;;;;4577624;27;20595;-63
2022/12/17 14:04:24;;;;;;;2.70;2.30;;;;;;;;;;4578561;27;20264;-63
2022/12/17 14:06:36;;;;;;;2.20;2.00;;;;;;;;;;4578054;27;20587;-63
2022/12/17 14:08:47;;;;;;;2.45;2.20;;;;;;;;;;4577198;27;20044;-63
2022/12/17 14:13:27;;;;;;;2.53;2.33;;;;;;;;;;4549412;27;20634;-63
2022/12/17 14:15:37;;;;;;;2.20;2.00;;;;;;;;;;4564759;27;20037;-63
2022/12/17 14:17:48;;;;;;;2.58;2.38;;;;;;;;;;4576210;27;20070;-63
2022/12/17 14:20:03;;;;;;;2.60;2.40;;;;;;;;;;4573416;27;20028;-63
2022/12/17 14:22:32;;;;;;;2.67;2.47;;;;;;;;;;4576540;27;20645;-63
2022/12/17 14:24:43;;;;;;;2.45;2.25;;;;;;;;;;4576945;27;20041;-64
2022/12/17 14:26:54;;;;;;;2.70;2.28;;;;;;;;;;4577399;27;20508;-63
2022/12/17 14:29:11;;;;;;;2.45;2.25;;;;;;;;;;4577886;27;20036;-63
2022/12/17 14:31:29;;;;;;;2.28;2.08;;;;;;;;;;4579690;27;20075;-63
2022/12/17 14:33:40;;;;;;;2.35;2.15;;;;;;;;;;4577960;27;20040;-63
2022/12/17 14:35:51;;;;;;;2.30;2.10;;;;;;;;;;4576008;27;20032;-63
2022/12/17 14:38:03;;;;;;;2.38;2.15;;;;;;;;;;4579292;27;20035;-63
2022/12/17 14:40:14;;;;;;;2.53;2.33;;;;;;;;;;4580251;27;20598;-63
2022/12/17 14:42:24;;;;;;;2.35;2.15;;;;;;;;;;4579504;27;20063;-63
2022/12/17 14:44:37;;;;;;;2.17;1.90;;;;;;;;;;4580550;27;20032;-63
2022/12/17 14:46:47;;;;;;;2.50;2.30;;;;;;;;;;4577269;27;20916;-63
2022/12/17 14:49:01;;;;;;;2.40;2.20;;;;;;;;;;4576991;27;20113;-63
2022/12/17 14:51:20;;;;;;;2.65;2.30;;;;;;;;;;4577888;27;20040;-63
2022/12/17 14:53:30;;;;;;;2.40;2.20;;;;;;;;;;4576641;27;20040;-63
2022/12/17 14:55:56;;;;;;;2.42;2.13;;;;;;;;;;4562286;27;20037;-63
2022/12/17 14:58:10;;;;;;;2.38;2.17;;;;;;;;;;4580269;27;20790;-63
2022/12/17 15:00:20;;;;;;;2.40;2.20;;;;;;;;;;4576268;27;20103;-63
2022/12/17 15:02:33;;;;;;;2.33;2.13;;;;;;;;;;4576619;27;20122;-63
2022/12/17 15:04:43;;;;;;;2.50;2.30;;;;;;;;;;4578997;27;20063;-63
2022/12/17 15:06:54;;;;;;;2.33;2.13;;;;;;;;;;4576944;27;20122;-63
2022/12/17 15:09:04;;;;;;;2.47;2.28;;;;;;;;;;4559719;27;20515;-63
2022/12/17 15:11:16;;;;;;;2.50;2.22;;;;;;;;;;4576088;27;20040;-63
2022/12/17 15:13:26;;;;;;;2.38;2.17;;;;;;;;;;4560006;27;20044;-63
2022/12/17 15:15:37;;;;;;;2.50;2.13;;;;;;;;;;4576804;27;20477;-64
2022/12/17 15:17:47;;;;;;;2.60;2.30;;;;;;;;;;4577238;27;20023;-63
2022/12/17 15:19:57;;;;;;;2.53;2.33;;;;;;;;;;4576150;27;20062;-63
2022/12/17 15:22:17;;;;;;;2.40;2.20;;;;;;;;;;4578568;27;20040;-63
2022/12/17 15:24:28;;;;;;;2.58;2.38;;;;;;;;;;4557835;27;20420;-63
2022/12/17 15:26:38;;;;;;;2.65;2.45;;;;;;;;;;4560056;27;20040;-63
2022/12/17 15:28:49;;;;;;;2.60;2.40;;;;;;;;;;4578745;27;20023;-63
2022/12/17 15:30:59;;;;;;;2.42;2.22;;;;;;;;;;4576825;27;20601;-64
2022/12/17 15:33:09;;;;;;;2.25;2.05;;;;;;;;;;4575154;27;20495;-64
2022/12/17 15:35:20;;;;;;;2.40;2.20;;;;;;;;;;4576934;27;20020;-64
2022/12/17 15:37:30;;;;;;;2.67;2.47;;;;;;;;;;4576555;27;20047;-64
2022/12/17 15:39:41;;;;;;;2.35;2.15;;;;;;;;;;4575929;27;20039;-64
2022/12/17 15:44:20;;;;;;;2.35;2.13;;;;;;;;;;4575782;27;20024;-63
2022/12/17 15:46:30;;;;;;;2.20;2.00;;;;;;;;;;4546357;27;20037;-63
2022/12/17 15:48:41;;;;;;;2.20;2.00;;;;;;;;;;4578551;27;20040;-63
2022/12/17 15:50:51;;;;;;;2.40;2.20;;;;;;;;;;4559789;27;20071;-63
2022/12/17 15:53:01;;;;;;;2.90;2.60;;;;;;;;;;4574534;27;20044;-64
2022/12/17 15:55:12;;;;;;;2.78;2.42;;;;;;;;;;4577347;27;20035;-64
2022/12/17 15:57:22;;;;;;;2.42;2.22;;;;;;;;;;4544327;27;20068;-64
2022/12/17 15:59:32;;;;;;;2.25;2.03;;;;;;;;;;4559844;27;20126;-64
2022/12/17 16:01:43;;;;;;;2.60;2.40;;;;;;;;;;4575129;27;20047;-64
2022/12/17 16:03:53;;;;;;;2.58;2.33;;;;;;;;;;4576236;27;20463;-64
2022/12/17 16:06:03;;;;;;;2.40;2.17;;;;;;;;;;4576381;27;20031;-64
2022/12/17 16:08:14;;;;;;;2.47;2.25;;;;;;;;;;4576006;27;20579;-63
2022/12/17 16:10:24;;;;;;;2.63;2.42;;;;;;;;;;4558534;27;20860;-63
2022/12/17 16:12:35;;;;;;;2.47;2.20;;;;;;;;;;4573964;27;20074;-63
2022/12/17 16:14:45;;;;;;;2.50;2.30;;;;;;;;;;4575273;27;20135;-64
2022/12/17 16:16:56;;;;;;;2.50;2.30;;;;;;;;;;4558533;27;20038;-63
2022/12/17 16:19:06;;;;;;;2.50;2.30;;;;;;;;;;4559623;27;20108;-63
2022/12/17 16:21:16;;;;;;;2.58;2.38;;;;;;;;;;4572698;27;20492;-64
2022/12/17 16:23:26;;;;;;;2.50;2.30;;;;;;;;;;4578435;27;20047;-64
2022/12/17 16:25:37;;;;;;;2.75;2.40;;;;;;;;;;4574944;27;20031;-63
2022/12/17 16:27:47;;;;;;;2.67;2.47;;;;;;;;;;4574506;27;20028;-63
2022/12/17 16:29:57;;;;;;;2.50;2.30;;;;;;;;;;4577230;27;20043;-63
2022/12/17 16:32:08;;;;;;;2.42;2.22;;;;;;;;;;4560162;27;20044;-63
2022/12/17 16:34:18;;;;;;;2.60;2.40;;;;;;;;;;4579203;27;20476;-63
2022/12/17 16:36:28;;;;;;;2.47;2.28;;;;;;;;;;4545831;28;20098;-64
2022/12/17 16:38:43;;;;;;;2.63;2.42;;;;;;;;;;4576034;27;20178;-64
2022/12/17 16:40:58;;;;;;;2.28;2.08;;;;;;;;;;4576893;27;20043;-63
2022/12/17 16:43:09;;;;;;;2.58;2.38;;;;;;;;;;4575296;27;20032;-63
2022/12/17 16:45:19;;;;;;;2.55;2.35;;;;;;;;;;4575779;27;20028;-63
2022/12/17 16:47:29;;;;;;;2.33;2.13;;;;;;;;;;4574980;27;20048;-63
2022/12/17 16:49:40;;;;;;;2.95;2.40;;;;;;;;;;4576695;27;20459;-63
2022/12/17 16:51:50;;;;;;;2.75;2.40;;;;;;;;;;4575964;27;20047;-63
2022/12/17 16:54:05;;;;;;;2.50;2.30;;;;;;;;;;4577286;27;20512;-64
2022/12/17 16:56:21;;;;;;;2.50;2.30;;;;;;;;;;4575223;27;20044;-63
2022/12/17 16:58:31;;;;;;;2.90;2.60;;;;;;;;;;4575897;27;20962;-63
2022/12/17 17:00:42;;;;;;;2.50;2.30;;;;;;;;;;4575381;27;20032;-63
2022/12/17 17:02:52;;;;;;;2.50;2.30;;;;;;;;;;4576926;27;20047;-64
2022/12/17 17:05:03;;;;;;;2.70;2.50;;;;;;;;;;4575650;27;20094;-64
2022/12/17 17:07:13;;;;;;;2.70;2.50;;;;;;;;;;4572297;27;20032;-64
2022/12/17 17:09:24;;;;;;;2.58;2.38;;;;;;;;;;4576539;27;20043;-63
2022/12/17 17:11:34;;;;;;;2.90;2.60;;;;;;;;;;4576913;27;20535;-63
2022/12/17 17:13:44;;;;;;;2.80;2.50;;;;;;;;;;4560401;27;20058;-63
2022/12/17 17:15:55;;;;;;;2.55;2.35;;;;;;;;;;4576452;27;20035;-64
2022/12/17 17:18:05;;;;;;;2.50;2.30;;;;;;;;;;4558253;27;20044;-64
2022/12/17 17:20:15;;;;;;;2.65;2.45;;;;;;;;;;4576426;27;20047;-64
2022/12/17 17:22:26;;;;;;;2.58;2.38;;;;;;;;;;4558525;27;20567;-63
2022/12/17 17:24:36;;;;;;;2.67;2.40;;;;;;;;;;4579604;27;20043;-63
2022/12/17 17:26:47;;;;;;;2.50;2.30;;;;;;;;;;4577807;27;20070;-64
2022/12/17 17:28:57;;;;;;;2.60;2.40;;;;;;;;;;4578776;27;20037;-63
2022/12/17 17:31:09;;;;;;;2.40;2.20;;;;;;;;;;4579416;27;20029;-64
2022/12/17 17:33:20;;;;;;;2.72;2.53;;;;;;;;;;4577953;27;20105;-64
2022/12/17 17:35:30;;;;;;;2.60;2.40;;;;;;;;;;4578102;27;20081;-64
2022/12/17 17:37:40;;;;;;;2.75;2.55;;;;;;;;;;4578512;27;20040;-64
2022/12/17 17:39:51;;;;;;;2.63;2.40;;;;;;;;;;4576972;27;20036;-63
2022/12/17 17:42:01;;;;;;;3.10;2.50;;;;;;;;;;4577344;27;20066;-64
2022/12/17 17:44:13;;;;;;;2.80;2.60;;;;;;;;;;4577702;27;20444;-63
2022/12/17 17:46:24;;;;;;;3.08;2.78;;;;;;;;;;4580306;27;20047;-64
2022/12/17 17:48:35;;;;;;;3.10;2.80;;;;;;;;;;4579789;27;20496;-64
2022/12/17 17:50:58;;;;;;;2.38;2.17;;;;;;;;;;4579070;27;20095;-64
2022/12/17 17:53:09;;;;;;;2.67;2.47;;;;;;;;;;4549161;27;20607;-64
2022/12/17 17:55:19;;;;;;;2.53;2.33;;;;;;;;;;4576275;27;20111;-63
2022/12/17 17:57:29;;;;;;;2.80;2.50;;;;;;;;;;4563135;27;20044;-63
2022/12/17 17:59:40;;;;;;;2.90;2.63;;;;;;;;;;4577023;27;20036;-64
2022/12/17 18:01:50;;;;;;;2.95;2.65;;;;;;;;;;4576764;27;20119;-63
2022/12/17 18:04:04;;;;;;;2.80;2.60;;;;;;;;;;4562219;27;20024;-64
2022/12/17 18:06:14;;;;;;;2.83;2.53;;;;;;;;;;4576424;27;20590;-64
2022/12/17 18:08:25;;;;;;;2.90;2.70;;;;;;;;;;4578196;27;20035;-63
2022/12/17 18:10:35;;;;;;;2.88;2.58;;;;;;;;;;4578281;27;20028;-64
2022/12/17 18:15:15;;;;;;;2.72;2.53;;;;;;;;;;4577928;27;20177;-64
2022/12/17 18:17:25;;;;;;;2.67;2.47;;;;;;;;;;4577205;27;20411;-64
2022/12/17 18:19:35;;;;;;;2.72;2.53;;;;;;;;;;4579566;27;20134;-64
2022/12/17 18:21:46;;;;;;;2.50;2.30;;;;;;;;;;4578516;27;20463;-64
2022/12/17 18:24:00;;;;;;;2.65;2.45;;;;;;;;;;4576797;27;20516;-64
2022/12/17 18:26:18;;;;;;;2.80;2.55;;;;;;;;;;4578291;27;20036;-63
2022/12/17 18:28:29;;;;;;;2.72;2.50;;;;;;;;;;4565204;27;20090;-63
2022/12/17 18:30:39;;;;;;;2.72;2.50;;;;;;;;;;4549309;27;20093;-63
2022/12/17 18:32:49;;;;;;;3.13;2.83;;;;;;;;;;4556209;27;20557;-63
2022/12/17 18:35:00;;;;;;;2.80;2.60;;;;;;;;;;4565873;27;20045;-61
2022/12/17 18:37:13;;;;;;;2.80;2.55;;;;;;;;;;4576246;27;20042;-64
2022/12/17 18:39:23;;;;;;;2.58;2.38;;;;;;;;;;4577262;27;20720;-63
2022/12/17 18:44:04;;;;;;;2.60;2.40;;;;;;;;;;4563497;27;20033;-63
2022/12/17 18:46:15;;;;;;;2.92;2.63;;;;;;;;;;4577260;27;20055;-63
2022/12/17 18:48:25;;;;;;;3.08;2.63;;;;;;;;;;4579688;27;20056;-63
2022/12/17 18:50:35;;;;;;;3.10;2.80;;;;;;;;;;4577122;27;20031;-63
2022/12/17 18:52:46;;;;;;;2.45;2.25;;;;;;;;;;4577538;27;20040;-64
2022/12/17 18:54:56;;;;;;;2.67;2.47;;;;;;;;;;4577488;27;20546;-63
2022/12/17 18:57:06;;;;;;;3.00;2.70;;;;;;;;;;4578963;27;20034;-63
2022/12/17 18:59:18;;;;;;;2.50;2.30;;;;;;;;;;4559459;27;20117;-63
2022/12/17 19:01:30;;;;;;;2.67;2.47;;;;;;;;;;4575405;27;22623;-64
2022/12/17 19:03:40;;;;;;;2.78;2.50;;;;;;;;;;4578190;27;20861;-63
2022/12/17 19:05:50;;;;;;;3.00;2.70;;;;;;;;;;4577638;27;20039;-63
2022/12/17 19:08:01;;;;;;;3.00;2.70;;;;;;;;;;4559339;28;20116;-63
2022/12/17 19:10:11;;;;;;;2.70;2.50;;;;;;;;;;4575675;27;20138;-63
2022/12/17 19:12:21;;;;;;;2.90;2.60;;;;;;;;;;4576841;27;20044;-63
2022/12/17 19:14:32;;;;;;;2.95;2.65;;;;;;;;;;4560231;27;20401;-63
2022/12/17 19:16:42;;;;;;;2.90;2.60;;;;;;;;;;4577473;27;20041;-63
2022/12/17 19:18:54;;;;;;;3.10;2.80;;;;;;;;;;4577837;27;20465;-63
2022/12/17 19:21:06;;;;;;;2.97;2.67;;;;;;;;;;4576550;27;20040;-64
2022/12/17 19:23:16;;;;;;;3.00;2.70;;;;;;;;;;4580841;27;20028;-64
2022/12/17 19:25:26;;;;;;;2.70;2.50;;;;;;;;;;4578987;27;20063;-64
2022/12/17 19:27:36;;;;;;;2.95;2.60;;;;;;;;;;4575831;27;20036;-64
2022/12/17 19:29:47;;;;;;;2.72;2.53;;;;;;;;;;4576825;27;20059;-64
2022/12/17 19:31:58;;;;;;;2.60;2.40;;;;;;;;;;4574787;27;20043;-63
2022/12/17 19:34:09;;;;;;;2.60;2.40;;;;;;;;;;4576008;27;20032;-63
2022/12/17 19:36:20;;;;;;;2.97;2.70;;;;;;;;;;4576261;27;20979;-63
2022/12/17 19:38:31;;;;;;;2.90;2.65;;;;;;;;;;4560656;28;20219;-64
2022/12/17 19:40:41;;;;;;;2.85;2.60;;;;;;;;;;4577501;27;20682;-64
2022/12/17 19:42:55;;;;;;;2.80;2.50;;;;;;;;;;4577975;27;20031;-64
2022/12/17 19:45:05;;;;;;;2.97;2.78;;;;;;;;;;4577859;27;20605;-64
2022/12/17 19:47:16;;;;;;;2.90;2.70;;;;;;;;;;4577153;27;20067;-64
2022/12/17 19:49:26;;;;;;;3.28;2.80;;;;;;;;;;4562231;27;20028;-64
2022/12/17 19:51:38;;;;;;;3.05;2.75;;;;;;;;;;4561312;27;20036;-63
2022/12/17 19:53:49;;;;;;;3.00;2.70;;;;;;;;;;4579462;27;20622;-65
2022/12/17 19:56:08;;;;;;;3.10;2.80;;;;;;;;;;4577597;27;20031;-64
2022/12/17 19:58:19;;;;;;;2.80;2.60;;;;;;;;;;4577813;27;20036;-63
2022/12/17 20:00:29;;;;;;;2.88;2.60;;;;;;;;;;4577089;27;20024;-63
2022/12/17 20:02:39;;;;;;;3.20;2.80;;;;;;;;;;4575105;27;20036;-63
2022/12/17 20:04:50;;;;;;;2.90;2.60;;;;;;;;;;4576542;27;20113;-63
2022/12/17 20:09:52;;;;;;;3.38;3.08;;;;;;;;;;4574266;27;20059;-63
2022/12/17 20:12:03;;;;;;;3.20;2.90;;;;;;;;;;4577144;27;20647;-63
2022/12/17 20:14:15;;;;;;;3.10;2.80;;;;;;;;;;4576125;27;20150;-64
2022/12/17 20:16:26;;;;;;;3.20;2.90;;;;;;;;;;4560658;27;20575;-64
2022/12/17 20:18:36;;;;;;;3.33;3.03;;;;;;;;;;4560399;27;20040;-63
2022/12/17 20:20:46;;;;;;;3.20;2.90;;;;;;;;;;4579840;27;20032;-63
2022/12/17 20:22:57;;;;;;;3.53;3.10;;;;;;;;;;4576286;27;20434;-63
2022/12/17 20:25:10;;;;;;;3.17;2.88;;;;;;;;;;4560515;27;21022;-63
2022/12/17 20:27:20;;;;;;;3.20;2.90;;;;;;;;;;4577994;27;20662;-63
2022/12/17 20:29:30;;;;;;;3.20;2.90;;;;;;;;;;4573166;27;20162;-63
2022/12/17 20:31:43;;;;;;;3.40;3.10;;;;;;;;;;4573424;27;20039;-63
2022/12/17 20:33:54;;;;;;;3.17;2.88;;;;;;;;;;4558860;27;20649;-63
2022/12/17 20:36:22;;;;;;;3.65;2.85;;;;;;;;;;4576335;27;20051;-63
2022/12/17 20:38:33;;;;;;;3.25;2.95;;;;;;;;;;4574888;27;20035;-63
2022/12/17 20:40:43;;;;;;;3.00;2.70;;;;;;;;;;4558877;27;20051;-63
2022/12/17 20:42:53;;;;;;;3.67;3.00;;;;;;;;;;4575500;27;20062;-63
2022/12/17 20:45:04;;;;;;;3.17;2.88;;;;;;;;;;4575080;27;20042;-63
2022/12/17 20:47:14;;;;;;;3.10;2.80;;;;;;;;;;4561004;27;20501;-63
2022/12/17 20:49:24;;;;;;;3.33;3.03;;;;;;;;;;4577182;27;20423;-63
2022/12/17 20:51:35;;;;;;;2.88;2.67;;;;;;;;;;4575232;27;20710;-63
2022/12/17 20:53:46;;;;;;;5.25;3.10;;;;;;;;;;4574983;27;20119;-63
2022/12/17 20:56:04;;;;;;;3.35;3.05;;;;;;;;;;4576650;27;20612;-63
2022/12/17 20:58:14;;;;;;;3.85;3.10;;;;;;;;;;4575473;27;20023;-63
2022/12/17 21:00:24;;;;;;;3.20;2.90;;;;;;;;;;4559584;27;20040;-63
2022/12/17 21:02:35;;;;;;;3.28;2.97;;;;;;;;;;4573759;27;20063;-63
2022/12/17 21:04:48;;;;;;;3.38;3.08;;;;;;;;;;4576870;27;20044;-63
2022/12/17 21:06:59;;;;;;;3.20;2.90;;;;;;;;;;4573555;27;21164;-63
2022/12/17 21:09:09;;;;;;;3.30;3.00;;;;;;;;;;4575472;27;20082;-63
2022/12/17 21:11:21;;;;;;;3.50;2.88;;;;;;;;;;4574855;27;20033;-64
2022/12/17 21:13:32;;;;;;;3.25;2.80;;;;;;;;;;4572693;27;20051;-62
2022/12/17 21:15:47;;;;;;;3.30;3.00;;;;;;;;;;4558514;27;20036;-63
2022/12/17 21:17:57;;;;;;;3.80;2.95;;;;;;;;;;4574736;27;20101;-63
2022/12/17 21:20:07;;;;;;;3.80;3.00;;;;;;;;;;4573491;27;20062;-63
2022/12/17 21:22:18;;;;;;;3.97;2.83;;;;;;;;;;4573915;27;20046;-63
2022/12/17 21:24:28;;;;;;;3.97;2.97;;;;;;;;;;4574317;27;20124;-63
2022/12/17 21:26:40;;;;;;;3.30;3.00;;;;;;;;;;4576853;27;20036;-63
2022/12/17 21:28:51;;;;;;;3.08;2.78;;;;;;;;;;4575115;27;20083;-63
2022/12/17 21:31:02;;;;;;;3.35;2.90;;;;;;;;;;4559456;27;20043;-64
2022/12/17 21:33:12;;;;;;;3.80;3.20;;;;;;;;;;4557623;27;20119;-63
2022/12/17 21:35:23;;;;;;;3.40;3.08;;;;;;;;;;4574536;27;20062;-63
2022/12/17 21:37:33;;;;;;;3.20;2.90;;;;;;;;;;4575305;27;20036;-63
2022/12/17 21:39:43;;;;;;;3.72;3.00;;;;;;;;;;4575546;27;20036;-63
2022/12/17 21:44:23;;;;;;;3.50;3.15;;;;;;;;;;4573168;27;20776;-63
2022/12/17 21:46:33;;;;;;;3.42;3.13;;;;;;;;;;4577632;27;20182;-63
2022/12/17 21:48:44;;;;;;;3.10;2.80;;;;;;;;;;4576261;27;20040;-64
2022/12/17 21:50:54;;;;;;;3.60;3.30;;;;;;;;;;4573694;27;20035;-64
2022/12/17 21:53:04;;;;;;;3.42;3.13;;;;;;;;;;4575778;27;20075;-63
2022/12/17 21:55:15;;;;;;;3.13;2.83;;;;;;;;;;4576607;27;20024;-63
2022/12/17 21:57:25;;;;;;;3.40;3.10;;;;;;;;;;4564285;28;20040;-64
2022/12/17 21:59:35;;;;;;;3.20;2.90;;;;;;;;;;4574725;27;20043;-63
2022/12/17 22:01:46;;;;;;;3.38;3.08;;;;;;;;;;4573065;27;20071;-63
2022/12/17 22:03:57;;;;;;;3.50;3.20;;;;;;;;;;4573265;27;20032;-63
2022/12/17 22:06:12;;;;;;;3.60;3.00;;;;;;;;;;4576128;27;20044;-63
2022/12/17 22:08:22;;;;;;;3.10;2.80;;;;;;;;;;4576412;27;20811;-63
2022/12/17 22:10:32;;;;;;;3.38;2.97;;;;;;;;;;4577588;27;20098;-63
2022/12/17 22:15:12;;;;;;;3.38;2.92;;;;;;;;;;4579281;27;21081;-63
2022/12/17 22:17:22;;;;;;;3.58;3.13;;;;;;;;;;4580117;27;20120;-63
2022/12/17 22:19:32;;;;;;;3.15;2.85;;;;;;;;;;4581304;27;20472;-63
2022/12/17 22:21:43;;;;;;;3.35;3.00;;;;;;;;;;4578155;27;20436;-63
2022/12/17 22:23:54;;;;;;;3.10;2.80;;;;;;;;;;4578547;27;20028;-63
2022/12/17 22:26:08;;;;;;;3.38;3.08;;;;;;;;;;4561641;28;20094;-63
2022/12/17 22:28:19;;;;;;;3.47;3.17;;;;;;;;;;4577898;27;20021;-63
2022/12/17 22:32:58;;;;;;;3.30;3.00;;;;;;;;;;4575912;27;20081;-63
2022/12/17 22:35:08;;;;;;;3.17;2.88;;;;;;;;;;4578152;27;20120;-63
2022/12/17 22:37:19;;;;;;;3.20;2.90;;;;;;;;;;4579056;27;20110;-62
2022/12/17 22:39:29;;;;;;;3.42;3.13;;;;;;;;;;4579413;27;20062;-63
2022/12/17 22:44:09;;;;;;;3.10;2.78;;;;;;;;;;4577760;27;20553;-63
2022/12/17 22:46:19;;;;;;;3.50;3.20;;;;;;;;;;4577410;27;20499;-63
2022/12/17 22:48:30;;;;;;;3.35;3.05;;;;;;;;;;4577433;27;20158;-63
2022/12/17 22:50:41;;;;;;;3.45;3.15;;;;;;;;;;4547692;27;20048;-63
2022/12/17 22:52:51;;;;;;;3.10;2.83;;;;;;;;;;4579812;27;20672;-63
2022/12/17 22:55:02;;;;;;;3.35;3.05;;;;;;;;;;4561112;27;20036;-63
2022/12/17 22:57:12;;;;;;;4.55;3.10;;;;;;;;;;4560728;27;20063;-63
2022/12/17 22:59:24;;;;;;;3.45;3.15;;;;;;;;;;4577763;27;20191;-63
2022/12/17 23:01:34;;;;;;;3.20;2.90;;;;;;;;;;4577936;27;20055;-63
2022/12/17 23:03:45;;;;;;;3.08;2.88;;;;;;;;;;4559281;27;20051;-63
2022/12/17 23:06:09;;;;;;;3.35;3.05;;;;;;;;;;4576788;27;20032;-63
2022/12/17 23:08:19;;;;;;;3.55;3.03;;;;;;;;;;4574624;27;20562;-63
2022/12/17 23:10:29;;;;;;;3.50;3.20;;;;;;;;;;4575150;27;20036;-63
2022/12/17 23:12:49;;;;;;;3.20;2.90;;;;;;;;;;4547373;27;20064;-63
2022/12/17 23:15:01;;;;;;;3.40;3.10;;;;;;;;;;4576743;27;20020;-64
2022/12/17 23:17:11;;;;;;;3.17;2.88;;;;;;;;;;4559705;27;20045;-63
2022/12/17 23:19:22;;;;;;;3.63;3.00;;;;;;;;;;4575292;27;20032;-63
2022/12/17 23:21:32;;;;;;;3.60;3.30;;;;;;;;;;4575303;27;20032;-63
2022/12/17 23:23:43;;;;;;;3.40;3.10;;;;;;;;;;4576709;27;20516;-63
2022/12/17 23:25:53;;;;;;;3.58;3.28;;;;;;;;;;4575287;27;20045;-63
2022/12/17 23:28:03;;;;;;;3.50;3.20;;;;;;;;;;4573967;27;20920;-64
2022/12/17 23:30:15;;;;;;;3.40;3.10;;;;;;;;;;4579693;27;20099;-63
2022/12/17 23:32:25;;;;;;;3.20;2.90;;;;;;;;;;4576880;27;20032;-63
2022/12/17 23:34:35;;;;;;;3.42;3.13;;;;;;;;;;4576922;27;20032;-64
2022/12/17 23:36:47;;;;;;;4.28;3.28;;;;;;;;;;4576018;27;20040;-63
2022/12/17 23:38:57;;;;;;;4.05;3.20;;;;;;;;;;4575606;27;20089;-63
2022/12/17 23:41:12;;;;;;;3.47;3.17;;;;;;;;;;4575047;27;20036;-63
2022/12/17 23:43:22;;;;;;;3.38;3.08;;;;;;;;;;4577876;27;20032;-64
2022/12/17 23:45:32;;;;;;;3.22;2.90;;;;;;;;;;4575087;27;20024;-63
2022/12/17 23:47:43;;;;;;;3.40;3.10;;;;;;;;;;4557323;27;20123;-63
2022/12/17 23:49:53;;;;;;;3.40;3.10;;;;;;;;;;4560009;27;20041;-64
2022/12/17 23:52:04;;;;;;;3.50;3.20;;;;;;;;;;4574495;27;20059;-63
2022/12/17 23:54:14;;;;;;;3.50;3.20;;;;;;;;;;4574611;27;20448;-64
2022/12/17 23:56:26;;;;;;;4.38;3.17;;;;;;;;;;4575428;27;20043;-64
2022/12/17 23:58:37;;;;;;;3.42;3.13;;;;;;;;;;4560339;27;20111;-63
